sensor_id;sensor_type;location;lat;lon;timestamp;P1;durP1;ratioP1;P2;durP2;ratioP2
11135;SDS011;5622;50.840;4.948;2022-10-04T00:01:42;14.33;;;10.63;;
11135;SDS011;5622;50.840;4.948;2022-10-04T00:04:13;11.77;;;9.50;;
11135;SDS011;5622;50.840;4.948;2022-10-04T00:06:45;12.33;;;8.97;;
11135;SDS011;5622;50.840;4.948;2022-10-04T00:09:18;14.60;;;9.47;;
11135;SDS011;5622;50.840;4.948;2022-10-04T00:11:47;14.40;;;9.07;;
11135;SDS011;5622;50.840;4.948;2022-10-04T00:14:18;14.60;;;9.40;;
11135;SDS011;5622;50.840;4.948;2022-10-04T00:16:49;12.47;;;9.40;;
11135;SDS011;5622;50.840;4.948;2022-10-04T00:19:38;11.30;;;8.53;;
11135;SDS011;5622;50.840;4.948;2022-10-04T00:22:15;12.43;;;8.57;;
11135;SDS011;5622;50.840;4.948;2022-10-04T00:33:53;11.70;;;8.67;;
11135;SDS011;5622;50.840;4.948;2022-10-04T00:39:24;11.57;;;8.70;;
11135;SDS011;5622;50.840;4.948;2022-10-04T00:42:23;11.77;;;8.23;;
11135;SDS011;5622;50.840;4.948;2022-10-04T00:45:10;13.37;;;9.27;;
11135;SDS011;5622;50.840;4.948;2022-10-04T00:47:57;10.43;;;8.77;;
11135;SDS011;5622;50.840;4.948;2022-10-04T00:50:32;10.87;;;8.63;;
11135;SDS011;5622;50.840;4.948;2022-10-04T00:53:10;9.77;;;7.67;;
11135;SDS011;5622;50.840;4.948;2022-10-04T00:55:43;11.60;;;8.00;;
11135;SDS011;5622;50.840;4.948;2022-10-04T00:58:17;12.43;;;8.13;;
11135;SDS011;5622;50.840;4.948;2022-10-04T01:00:49;8.60;;;7.70;;
11135;SDS011;5622;50.840;4.948;2022-10-04T01:03:20;10.63;;;8.33;;
11135;SDS011;5622;50.840;4.948;2022-10-04T01:05:56;12.07;;;8.40;;
11135;SDS011;5622;50.840;4.948;2022-10-04T01:08:26;12.20;;;8.50;;
11135;SDS011;5622;50.840;4.948;2022-10-04T01:10:57;11.63;;;8.20;;
11135;SDS011;5622;50.840;4.948;2022-10-04T01:13:27;12.63;;;8.20;;
11135;SDS011;5622;50.840;4.948;2022-10-04T01:15:58;13.37;;;7.97;;
11135;SDS011;5622;50.840;4.948;2022-10-04T01:18:29;10.30;;;8.00;;
11135;SDS011;5622;50.840;4.948;2022-10-04T01:21:02;14.70;;;8.70;;
11135;SDS011;5622;50.840;4.948;2022-10-04T01:23:33;14.53;;;8.23;;
11135;SDS011;5622;50.840;4.948;2022-10-04T01:26:02;11.07;;;7.90;;
11135;SDS011;5622;50.840;4.948;2022-10-04T01:28:31;12.37;;;7.83;;
11135;SDS011;5622;50.840;4.948;2022-10-04T01:30:59;13.40;;;8.73;;
11135;SDS011;5622;50.840;4.948;2022-10-04T01:33:26;12.13;;;8.03;;
11135;SDS011;5622;50.840;4.948;2022-10-04T01:35:54;11.73;;;7.53;;
11135;SDS011;5622;50.840;4.948;2022-10-04T01:38:22;11.03;;;7.67;;
11135;SDS011;5622;50.840;4.948;2022-10-04T01:40:52;13.43;;;7.60;;
11135;SDS011;5622;50.840;4.948;2022-10-04T01:43:25;9.23;;;7.10;;
11135;SDS011;5622;50.840;4.948;2022-10-04T01:45:57;11.93;;;7.77;;
11135;SDS011;5622;50.840;4.948;2022-10-04T01:48:31;11.80;;;8.03;;
11135;SDS011;5622;50.840;4.948;2022-10-04T01:51:03;9.30;;;7.43;;
11135;SDS011;5622;50.840;4.948;2022-10-04T01:53:34;8.90;;;7.33;;
11135;SDS011;5622;50.840;4.948;2022-10-04T01:56:07;11.80;;;6.93;;
11135;SDS011;5622;50.840;4.948;2022-10-04T01:58:39;11.07;;;7.73;;
11135;SDS011;5622;50.840;4.948;2022-10-04T02:01:10;9.23;;;7.07;;
11135;SDS011;5622;50.840;4.948;2022-10-04T02:03:42;9.77;;;7.60;;
11135;SDS011;5622;50.840;4.948;2022-10-04T02:06:13;9.07;;;6.93;;
11135;SDS011;5622;50.840;4.948;2022-10-04T02:08:44;14.40;;;8.23;;
11135;SDS011;5622;50.840;4.948;2022-10-04T02:11:17;9.50;;;7.70;;
11135;SDS011;5622;50.840;4.948;2022-10-04T02:13:46;9.60;;;7.60;;
11135;SDS011;5622;50.840;4.948;2022-10-04T02:16:16;8.20;;;6.73;;
11135;SDS011;5622;50.840;4.948;2022-10-04T02:18:44;7.97;;;6.43;;
11135;SDS011;5622;50.840;4.948;2022-10-04T02:21:12;13.03;;;7.93;;
11135;SDS011;5622;50.840;4.948;2022-10-04T02:23:40;12.83;;;6.57;;
11135;SDS011;5622;50.840;4.948;2022-10-04T02:26:09;10.20;;;6.77;;
11135;SDS011;5622;50.840;4.948;2022-10-04T02:28:39;9.87;;;6.60;;
11135;SDS011;5622;50.840;4.948;2022-10-04T02:31:06;9.73;;;6.87;;
11135;SDS011;5622;50.840;4.948;2022-10-04T02:33:54;8.30;;;6.63;;
11135;SDS011;5622;50.840;4.948;2022-10-04T02:36:24;8.00;;;6.40;;
11135;SDS011;5622;50.840;4.948;2022-10-04T02:38:54;12.23;;;6.17;;
11135;SDS011;5622;50.840;4.948;2022-10-04T02:41:27;10.53;;;7.03;;
11135;SDS011;5622;50.840;4.948;2022-10-04T02:43:58;8.37;;;6.37;;
11135;SDS011;5622;50.840;4.948;2022-10-04T02:46:30;8.33;;;6.17;;
11135;SDS011;5622;50.840;4.948;2022-10-04T02:49:03;8.87;;;6.27;;
11135;SDS011;5622;50.840;4.948;2022-10-04T02:51:37;8.73;;;6.60;;
11135;SDS011;5622;50.840;4.948;2022-10-04T02:54:10;9.10;;;6.53;;
11135;SDS011;5622;50.840;4.948;2022-10-04T02:56:41;8.17;;;6.20;;
11135;SDS011;5622;50.840;4.948;2022-10-04T02:59:13;8.67;;;6.30;;
11135;SDS011;5622;50.840;4.948;2022-10-04T03:01:45;10.93;;;6.77;;
11135;SDS011;5622;50.840;4.948;2022-10-04T03:04:16;9.77;;;6.73;;
11135;SDS011;5622;50.840;4.948;2022-10-04T03:06:47;8.23;;;5.83;;
11135;SDS011;5622;50.840;4.948;2022-10-04T03:09:15;11.80;;;6.37;;
11135;SDS011;5622;50.840;4.948;2022-10-04T03:11:45;7.77;;;5.93;;
11135;SDS011;5622;50.840;4.948;2022-10-04T03:14:16;8.57;;;6.83;;
11135;SDS011;5622;50.840;4.948;2022-10-04T03:16:46;9.27;;;6.13;;
11135;SDS011;5622;50.840;4.948;2022-10-04T03:19:18;11.40;;;6.37;;
11135;SDS011;5622;50.840;4.948;2022-10-04T03:21:48;6.07;;;5.47;;
11135;SDS011;5622;50.840;4.948;2022-10-04T03:24:19;7.43;;;5.77;;
11135;SDS011;5622;50.840;4.948;2022-10-04T03:26:49;8.80;;;5.87;;
11135;SDS011;5622;50.840;4.948;2022-10-04T03:29:21;7.50;;;5.67;;
11135;SDS011;5622;50.840;4.948;2022-10-04T03:31:50;9.10;;;5.70;;
11135;SDS011;5622;50.840;4.948;2022-10-04T03:34:22;9.37;;;5.63;;
11135;SDS011;5622;50.840;4.948;2022-10-04T03:36:51;6.50;;;4.93;;
11135;SDS011;5622;50.840;4.948;2022-10-04T03:39:25;8.80;;;5.30;;
11135;SDS011;5622;50.840;4.948;2022-10-04T03:41:56;6.03;;;4.43;;
11135;SDS011;5622;50.840;4.948;2022-10-04T03:44:26;6.17;;;4.53;;
11135;SDS011;5622;50.840;4.948;2022-10-04T03:46:53;7.10;;;4.77;;
11135;SDS011;5622;50.840;4.948;2022-10-04T03:49:24;8.30;;;5.00;;
11135;SDS011;5622;50.840;4.948;2022-10-04T03:51:57;8.83;;;5.20;;
11135;SDS011;5622;50.840;4.948;2022-10-04T03:54:26;6.83;;;4.50;;
11135;SDS011;5622;50.840;4.948;2022-10-04T03:56:54;6.83;;;4.67;;
11135;SDS011;5622;50.840;4.948;2022-10-04T03:59:24;6.57;;;4.47;;
11135;SDS011;5622;50.840;4.948;2022-10-04T04:01:59;5.17;;;4.13;;
11135;SDS011;5622;50.840;4.948;2022-10-04T04:04:34;10.37;;;4.73;;
11135;SDS011;5622;50.840;4.948;2022-10-04T04:07:10;7.57;;;4.37;;
11135;SDS011;5622;50.840;4.948;2022-10-04T04:09:42;8.23;;;4.90;;
11135;SDS011;5622;50.840;4.948;2022-10-04T04:12:13;7.07;;;4.40;;
11135;SDS011;5622;50.840;4.948;2022-10-04T04:14:47;8.07;;;4.37;;
11135;SDS011;5622;50.840;4.948;2022-10-04T04:20:02;7.57;;;4.57;;
11135;SDS011;5622;50.840;4.948;2022-10-04T04:22:32;9.03;;;4.80;;
11135;SDS011;5622;50.840;4.948;2022-10-04T04:25:03;8.57;;;4.60;;
11135;SDS011;5622;50.840;4.948;2022-10-04T04:27:34;6.47;;;4.87;;
11135;SDS011;5622;50.840;4.948;2022-10-04T04:30:06;8.73;;;4.37;;
11135;SDS011;5622;50.840;4.948;2022-10-04T04:32:39;8.50;;;5.03;;
11135;SDS011;5622;50.840;4.948;2022-10-04T04:35:19;6.93;;;4.97;;
11135;SDS011;5622;50.840;4.948;2022-10-04T04:38:01;5.77;;;4.80;;
11135;SDS011;5622;50.840;4.948;2022-10-04T04:40:29;9.40;;;5.77;;
11135;SDS011;5622;50.840;4.948;2022-10-04T04:42:57;9.13;;;4.73;;
11135;SDS011;5622;50.840;4.948;2022-10-04T04:45:28;6.93;;;4.43;;
11135;SDS011;5622;50.840;4.948;2022-10-04T04:47:57;6.93;;;4.90;;
11135;SDS011;5622;50.840;4.948;2022-10-04T04:50:28;10.37;;;4.90;;
11135;SDS011;5622;50.840;4.948;2022-10-04T04:52:58;9.40;;;4.80;;
11135;SDS011;5622;50.840;4.948;2022-10-04T04:55:33;7.60;;;4.50;;
11135;SDS011;5622;50.840;4.948;2022-10-04T04:58:04;7.33;;;4.67;;
11135;SDS011;5622;50.840;4.948;2022-10-04T05:00:35;7.37;;;4.77;;
11135;SDS011;5622;50.840;4.948;2022-10-04T05:03:05;5.23;;;4.07;;
11135;SDS011;5622;50.840;4.948;2022-10-04T05:05:42;5.60;;;4.27;;
11135;SDS011;5622;50.840;4.948;2022-10-04T05:08:17;8.50;;;4.07;;
11135;SDS011;5622;50.840;4.948;2022-10-04T05:10:46;8.97;;;4.50;;
11135;SDS011;5622;50.840;4.948;2022-10-04T05:13:19;8.00;;;4.43;;
11135;SDS011;5622;50.840;4.948;2022-10-04T05:15:50;12.43;;;4.93;;
11135;SDS011;5622;50.840;4.948;2022-10-04T05:18:24;10.47;;;5.60;;
11135;SDS011;5622;50.840;4.948;2022-10-04T05:20:58;10.17;;;5.50;;
11135;SDS011;5622;50.840;4.948;2022-10-04T05:23:31;6.83;;;4.07;;
11135;SDS011;5622;50.840;4.948;2022-10-04T05:25:59;8.93;;;4.77;;
11135;SDS011;5622;50.840;4.948;2022-10-04T05:28:28;7.53;;;4.60;;
11135;SDS011;5622;50.840;4.948;2022-10-04T05:31:06;8.87;;;4.33;;
11135;SDS011;5622;50.840;4.948;2022-10-04T05:33:48;6.63;;;4.53;;
11135;SDS011;5622;50.840;4.948;2022-10-04T05:39:20;10.47;;;5.40;;
11135;SDS011;5622;50.840;4.948;2022-10-04T05:41:54;9.27;;;5.10;;
11135;SDS011;5622;50.840;4.948;2022-10-04T05:44:27;8.13;;;4.33;;
11135;SDS011;5622;50.840;4.948;2022-10-04T05:46:58;5.57;;;3.90;;
11135;SDS011;5622;50.840;4.948;2022-10-04T05:49:27;7.33;;;4.87;;
11135;SDS011;5622;50.840;4.948;2022-10-04T05:51:59;9.37;;;4.53;;
11135;SDS011;5622;50.840;4.948;2022-10-04T05:54:30;7.73;;;4.97;;
11135;SDS011;5622;50.840;4.948;2022-10-04T06:00:00;9.47;;;4.40;;
11135;SDS011;5622;50.840;4.948;2022-10-04T06:05:47;7.77;;;4.80;;
11135;SDS011;5622;50.840;4.948;2022-10-04T06:08:30;5.70;;;4.60;;
11135;SDS011;5622;50.840;4.948;2022-10-04T06:11:10;7.77;;;4.27;;
11135;SDS011;5622;50.840;4.948;2022-10-04T06:14:00;5.17;;;4.17;;
11135;SDS011;5622;50.840;4.948;2022-10-04T06:16:45;8.57;;;4.40;;
11135;SDS011;5622;50.840;4.948;2022-10-04T06:19:29;6.47;;;4.87;;
11135;SDS011;5622;50.840;4.948;2022-10-04T06:22:15;9.97;;;5.63;;
11135;SDS011;5622;50.840;4.948;2022-10-04T06:24:43;7.47;;;4.60;;
11135;SDS011;5622;50.840;4.948;2022-10-04T06:27:16;8.37;;;5.17;;
11135;SDS011;5622;50.840;4.948;2022-10-04T06:29:48;8.50;;;4.40;;
11135;SDS011;5622;50.840;4.948;2022-10-04T06:32:34;8.83;;;4.87;;
11135;SDS011;5622;50.840;4.948;2022-10-04T06:38:23;8.97;;;5.13;;
11135;SDS011;5622;50.840;4.948;2022-10-04T06:41:20;8.97;;;5.93;;
11135;SDS011;5622;50.840;4.948;2022-10-04T06:44:04;6.47;;;4.97;;
11135;SDS011;5622;50.840;4.948;2022-10-04T06:46:46;9.67;;;5.30;;
11135;SDS011;5622;50.840;4.948;2022-10-04T06:49:27;9.73;;;5.57;;
11135;SDS011;5622;50.840;4.948;2022-10-04T06:52:12;10.07;;;4.93;;
11135;SDS011;5622;50.840;4.948;2022-10-04T06:55:00;6.87;;;5.03;;
11135;SDS011;5622;50.840;4.948;2022-10-04T06:58:04;13.50;;;5.40;;
11135;SDS011;5622;50.840;4.948;2022-10-04T07:00:50;6.93;;;4.97;;
11135;SDS011;5622;50.840;4.948;2022-10-04T07:03:23;7.40;;;4.60;;
11135;SDS011;5622;50.840;4.948;2022-10-04T07:05:56;7.93;;;5.20;;
11135;SDS011;5622;50.840;4.948;2022-10-04T07:08:29;8.83;;;5.17;;
11135;SDS011;5622;50.840;4.948;2022-10-04T07:11:06;9.77;;;5.57;;
11135;SDS011;5622;50.840;4.948;2022-10-04T07:13:42;13.30;;;5.03;;
11135;SDS011;5622;50.840;4.948;2022-10-04T07:16:23;9.80;;;5.23;;
11135;SDS011;5622;50.840;4.948;2022-10-04T07:18:58;7.60;;;4.77;;
11135;SDS011;5622;50.840;4.948;2022-10-04T07:21:35;9.03;;;5.30;;
11135;SDS011;5622;50.840;4.948;2022-10-04T07:24:08;7.23;;;5.30;;
11135;SDS011;5622;50.840;4.948;2022-10-04T07:26:42;11.17;;;5.60;;
11135;SDS011;5622;50.840;4.948;2022-10-04T07:29:14;8.10;;;6.00;;
11135;SDS011;5622;50.840;4.948;2022-10-04T07:31:47;11.57;;;6.60;;
11135;SDS011;5622;50.840;4.948;2022-10-04T07:34:27;9.93;;;5.90;;
11135;SDS011;5622;50.840;4.948;2022-10-04T07:36:57;10.27;;;5.83;;
11135;SDS011;5622;50.840;4.948;2022-10-04T07:39:32;9.23;;;5.80;;
11135;SDS011;5622;50.840;4.948;2022-10-04T07:42:14;9.07;;;5.43;;
11135;SDS011;5622;50.840;4.948;2022-10-04T07:44:53;9.67;;;6.47;;
11135;SDS011;5622;50.840;4.948;2022-10-04T07:47:29;10.27;;;6.37;;
11135;SDS011;5622;50.840;4.948;2022-10-04T07:49:57;13.00;;;6.70;;
11135;SDS011;5622;50.840;4.948;2022-10-04T07:52:38;14.93;;;7.23;;
11135;SDS011;5622;50.840;4.948;2022-10-04T07:55:20;12.80;;;6.70;;
11135;SDS011;5622;50.840;4.948;2022-10-04T07:58:04;12.23;;;6.93;;
11135;SDS011;5622;50.840;4.948;2022-10-04T08:00:53;17.47;;;7.93;;
11135;SDS011;5622;50.840;4.948;2022-10-04T08:03:39;13.13;;;8.13;;
11135;SDS011;5622;50.840;4.948;2022-10-04T08:06:17;21.70;;;10.30;;
11135;SDS011;5622;50.840;4.948;2022-10-04T08:09:00;20.33;;;12.13;;
11135;SDS011;5622;50.840;4.948;2022-10-04T08:11:39;25.70;;;13.87;;
11135;SDS011;5622;50.840;4.948;2022-10-04T08:14:18;29.03;;;14.47;;
11135;SDS011;5622;50.840;4.948;2022-10-04T08:17:02;27.23;;;15.27;;
11135;SDS011;5622;50.840;4.948;2022-10-04T08:19:42;22.77;;;13.33;;
11135;SDS011;5622;50.840;4.948;2022-10-04T08:22:18;21.33;;;12.07;;
11135;SDS011;5622;50.840;4.948;2022-10-04T08:24:58;22.63;;;12.03;;
11135;SDS011;5622;50.840;4.948;2022-10-04T08:27:34;18.93;;;10.13;;
11135;SDS011;5622;50.840;4.948;2022-10-04T08:30:40;15.57;;;8.77;;
11135;SDS011;5622;50.840;4.948;2022-10-04T08:33:19;14.97;;;8.03;;
11135;SDS011;5622;50.840;4.948;2022-10-04T08:35:58;12.70;;;6.73;;
11135;SDS011;5622;50.840;4.948;2022-10-04T08:38:41;8.63;;;5.57;;
11135;SDS011;5622;50.840;4.948;2022-10-04T08:41:27;8.83;;;5.30;;
11135;SDS011;5622;50.840;4.948;2022-10-04T08:47:36;12.37;;;6.03;;
11135;SDS011;5622;50.840;4.948;2022-10-04T08:56:38;12.03;;;6.30;;
11135;SDS011;5622;50.840;4.948;2022-10-04T09:02:39;11.67;;;6.20;;
11135;SDS011;5622;50.840;4.948;2022-10-04T09:11:40;11.07;;;6.27;;
11135;SDS011;5622;50.840;4.948;2022-10-04T09:14:35;9.17;;;6.27;;
11135;SDS011;5622;50.840;4.948;2022-10-04T09:17:29;12.43;;;7.30;;
11135;SDS011;5622;50.840;4.948;2022-10-04T09:20:17;11.83;;;7.00;;
11135;SDS011;5622;50.840;4.948;2022-10-04T09:23:00;12.27;;;6.90;;
11135;SDS011;5622;50.840;4.948;2022-10-04T09:25:46;12.03;;;7.57;;
11135;SDS011;5622;50.840;4.948;2022-10-04T09:28:33;16.93;;;7.37;;
11135;SDS011;5622;50.840;4.948;2022-10-04T09:31:39;12.17;;;6.80;;
11135;SDS011;5622;50.840;4.948;2022-10-04T09:34:32;7.30;;;6.07;;
11135;SDS011;5622;50.840;4.948;2022-10-04T09:37:18;13.73;;;6.50;;
11135;SDS011;5622;50.840;4.948;2022-10-04T09:43:02;10.20;;;6.23;;
11135;SDS011;5622;50.840;4.948;2022-10-04T09:45:47;15.07;;;6.70;;
11135;SDS011;5622;50.840;4.948;2022-10-04T09:48:31;8.80;;;6.20;;
11135;SDS011;5622;50.840;4.948;2022-10-04T09:51:13;8.27;;;6.40;;
11135;SDS011;5622;50.840;4.948;2022-10-04T09:54:01;14.03;;;6.23;;
11135;SDS011;5622;50.840;4.948;2022-10-04T09:56:40;8.37;;;6.57;;
11135;SDS011;5622;50.840;4.948;2022-10-04T10:02:35;14.73;;;7.07;;
11135;SDS011;5622;50.840;4.948;2022-10-04T10:05:34;11.00;;;6.13;;
11135;SDS011;5622;50.840;4.948;2022-10-04T10:08:16;12.27;;;6.53;;
11135;SDS011;5622;50.840;4.948;2022-10-04T10:10:54;10.90;;;6.80;;
11135;SDS011;5622;50.840;4.948;2022-10-04T10:14:02;11.90;;;6.43;;
11135;SDS011;5622;50.840;4.948;2022-10-04T10:16:49;12.80;;;6.93;;
11135;SDS011;5622;50.840;4.948;2022-10-04T10:26:01;11.30;;;6.13;;
11135;SDS011;5622;50.840;4.948;2022-10-04T10:31:58;9.50;;;5.93;;
11135;SDS011;5622;50.840;4.948;2022-10-04T10:37:35;7.90;;;6.13;;
11135;SDS011;5622;50.840;4.948;2022-10-04T10:46:09;10.67;;;6.33;;
11135;SDS011;5622;50.840;4.948;2022-10-04T10:48:51;8.63;;;5.50;;
11135;SDS011;5622;50.840;4.948;2022-10-04T10:51:34;9.67;;;6.00;;
11135;SDS011;5622;50.840;4.948;2022-10-04T10:57:28;8.50;;;5.50;;
11135;SDS011;5622;50.840;4.948;2022-10-04T11:00:20;11.23;;;6.70;;
11135;SDS011;5622;50.840;4.948;2022-10-04T11:02:54;8.03;;;6.20;;
11135;SDS011;5622;50.840;4.948;2022-10-04T11:05:46;11.87;;;6.63;;
11135;SDS011;5622;50.840;4.948;2022-10-04T11:08:58;9.83;;;6.33;;
11135;SDS011;5622;50.840;4.948;2022-10-04T11:27:25;10.17;;;6.40;;
11135;SDS011;5622;50.840;4.948;2022-10-04T11:30:09;9.87;;;5.73;;
11135;SDS011;5622;50.840;4.948;2022-10-04T11:39:03;9.83;;;5.73;;
11135;SDS011;5622;50.840;4.948;2022-10-04T11:41:55;9.90;;;6.03;;
11135;SDS011;5622;50.840;4.948;2022-10-04T11:44:34;8.50;;;5.00;;
11135;SDS011;5622;50.840;4.948;2022-10-04T11:47:23;8.73;;;5.27;;
11135;SDS011;5622;50.840;4.948;2022-10-04T11:50:07;10.07;;;5.57;;
11135;SDS011;5622;50.840;4.948;2022-10-04T11:52:50;9.70;;;6.00;;
11135;SDS011;5622;50.840;4.948;2022-10-04T11:58:58;9.63;;;6.07;;
11135;SDS011;5622;50.840;4.948;2022-10-04T12:02:05;13.00;;;5.20;;
11135;SDS011;5622;50.840;4.948;2022-10-04T12:05:01;9.37;;;4.83;;
11135;SDS011;5622;50.840;4.948;2022-10-04T12:07:50;7.50;;;5.67;;
11135;SDS011;5622;50.840;4.948;2022-10-04T12:10:23;7.03;;;5.10;;
11135;SDS011;5622;50.840;4.948;2022-10-04T12:16:20;9.33;;;5.20;;
11135;SDS011;5622;50.840;4.948;2022-10-04T12:19:37;6.70;;;4.80;;
11135;SDS011;5622;50.840;4.948;2022-10-04T12:22:32;10.53;;;5.83;;
11135;SDS011;5622;50.840;4.948;2022-10-04T12:28:22;11.93;;;6.13;;
11135;SDS011;5622;50.840;4.948;2022-10-04T12:31:10;10.70;;;6.43;;
11135;SDS011;5622;50.840;4.948;2022-10-04T12:33:46;11.40;;;5.90;;
11135;SDS011;5622;50.840;4.948;2022-10-04T12:36:23;9.33;;;5.77;;
11135;SDS011;5622;50.840;4.948;2022-10-04T12:41:57;10.73;;;5.60;;
11135;SDS011;5622;50.840;4.948;2022-10-04T12:44:39;7.93;;;5.00;;
11135;SDS011;5622;50.840;4.948;2022-10-04T12:50:19;6.30;;;4.80;;
11135;SDS011;5622;50.840;4.948;2022-10-04T12:52:57;8.07;;;4.80;;
11135;SDS011;5622;50.840;4.948;2022-10-04T12:58:44;10.60;;;5.53;;
11135;SDS011;5622;50.840;4.948;2022-10-04T13:01:25;6.27;;;4.20;;
11135;SDS011;5622;50.840;4.948;2022-10-04T13:04:04;7.27;;;4.13;;
11135;SDS011;5622;50.840;4.948;2022-10-04T13:06:45;10.50;;;5.37;;
11135;SDS011;5622;50.840;4.948;2022-10-04T13:09:26;6.33;;;4.53;;
11135;SDS011;5622;50.840;4.948;2022-10-04T13:12:12;8.97;;;4.80;;
11135;SDS011;5622;50.840;4.948;2022-10-04T13:14:58;6.73;;;4.47;;
11135;SDS011;5622;50.840;4.948;2022-10-04T13:17:38;7.67;;;4.57;;
11135;SDS011;5622;50.840;4.948;2022-10-04T13:20:19;9.57;;;4.23;;
11135;SDS011;5622;50.840;4.948;2022-10-04T13:23:03;7.97;;;4.57;;
11135;SDS011;5622;50.840;4.948;2022-10-04T13:25:47;7.97;;;4.73;;
11135;SDS011;5622;50.840;4.948;2022-10-04T13:28:38;7.00;;;4.17;;
11135;SDS011;5622;50.840;4.948;2022-10-04T13:31:19;8.43;;;4.67;;
11135;SDS011;5622;50.840;4.948;2022-10-04T13:33:51;5.43;;;4.10;;
11135;SDS011;5622;50.840;4.948;2022-10-04T13:36:26;10.27;;;4.70;;
11135;SDS011;5622;50.840;4.948;2022-10-04T13:45:08;6.70;;;5.03;;
11135;SDS011;5622;50.840;4.948;2022-10-04T13:47:46;8.97;;;4.67;;
11135;SDS011;5622;50.840;4.948;2022-10-04T13:50:41;11.90;;;4.97;;
11135;SDS011;5622;50.840;4.948;2022-10-04T13:53:23;6.93;;;3.83;;
11135;SDS011;5622;50.840;4.948;2022-10-04T13:59:26;5.57;;;3.77;;
11135;SDS011;5622;50.840;4.948;2022-10-04T14:02:21;9.80;;;4.57;;
11135;SDS011;5622;50.840;4.948;2022-10-04T14:05:26;7.87;;;4.13;;
11135;SDS011;5622;50.840;4.948;2022-10-04T14:11:22;7.23;;;4.40;;
11135;SDS011;5622;50.840;4.948;2022-10-04T14:14:31;5.57;;;4.13;;
11135;SDS011;5622;50.840;4.948;2022-10-04T14:17:35;7.53;;;5.00;;
11135;SDS011;5622;50.840;4.948;2022-10-04T14:20:57;9.40;;;4.67;;
11135;SDS011;5622;50.840;4.948;2022-10-04T14:27:01;10.23;;;4.03;;
11135;SDS011;5622;50.840;4.948;2022-10-04T14:35:56;9.27;;;4.27;;
11135;SDS011;5622;50.840;4.948;2022-10-04T14:38:56;7.67;;;4.07;;
11135;SDS011;5622;50.840;4.948;2022-10-04T14:45:01;7.70;;;4.23;;
11135;SDS011;5622;50.840;4.948;2022-10-04T14:51:13;9.77;;;4.00;;
11135;SDS011;5622;50.840;4.948;2022-10-04T14:53:55;6.33;;;4.17;;
11135;SDS011;5622;50.840;4.948;2022-10-04T14:59:30;6.63;;;4.30;;
11135;SDS011;5622;50.840;4.948;2022-10-04T15:02:50;7.37;;;3.97;;
11135;SDS011;5622;50.840;4.948;2022-10-04T15:05:43;8.70;;;4.23;;
11135;SDS011;5622;50.840;4.948;2022-10-04T15:08:35;9.67;;;4.53;;
11135;SDS011;5622;50.840;4.948;2022-10-04T15:11:11;5.87;;;3.87;;
11135;SDS011;5622;50.840;4.948;2022-10-04T15:13:47;7.07;;;3.70;;
11135;SDS011;5622;50.840;4.948;2022-10-04T15:16:21;6.47;;;3.80;;
11135;SDS011;5622;50.840;4.948;2022-10-04T15:19:03;6.43;;;3.97;;
11135;SDS011;5622;50.840;4.948;2022-10-04T15:21:45;6.80;;;3.87;;
11135;SDS011;5622;50.840;4.948;2022-10-04T15:24:21;7.53;;;4.00;;
11135;SDS011;5622;50.840;4.948;2022-10-04T15:27:25;6.73;;;3.63;;
11135;SDS011;5622;50.840;4.948;2022-10-04T15:30:22;7.07;;;4.40;;
11135;SDS011;5622;50.840;4.948;2022-10-04T15:35:51;5.87;;;4.37;;
11135;SDS011;5622;50.840;4.948;2022-10-04T15:38:43;7.50;;;4.80;;
11135;SDS011;5622;50.840;4.948;2022-10-04T15:41:15;7.43;;;4.10;;
11135;SDS011;5622;50.840;4.948;2022-10-04T15:44:02;7.43;;;4.30;;
11135;SDS011;5622;50.840;4.948;2022-10-04T15:46:42;7.83;;;4.40;;
11135;SDS011;5622;50.840;4.948;2022-10-04T15:49:18;8.83;;;4.20;;
11135;SDS011;5622;50.840;4.948;2022-10-04T15:52:14;7.93;;;3.90;;
11135;SDS011;5622;50.840;4.948;2022-10-04T15:55:16;6.83;;;4.53;;
11135;SDS011;5622;50.840;4.948;2022-10-04T15:57:54;6.97;;;4.20;;
11135;SDS011;5622;50.840;4.948;2022-10-04T16:00:42;5.43;;;3.93;;
11135;SDS011;5622;50.840;4.948;2022-10-04T16:03:21;6.47;;;4.30;;
11135;SDS011;5622;50.840;4.948;2022-10-04T16:06:00;5.30;;;4.23;;
11135;SDS011;5622;50.840;4.948;2022-10-04T16:08:43;5.23;;;4.33;;
11135;SDS011;5622;50.840;4.948;2022-10-04T16:12:00;6.73;;;4.33;;
11135;SDS011;5622;50.840;4.948;2022-10-04T16:14:53;4.60;;;4.13;;
11135;SDS011;5622;50.840;4.948;2022-10-04T16:20:17;7.30;;;4.50;;
11135;SDS011;5622;50.840;4.948;2022-10-04T16:26:00;5.37;;;4.20;;
11135;SDS011;5622;50.840;4.948;2022-10-04T16:31:43;6.63;;;4.30;;
11135;SDS011;5622;50.840;4.948;2022-10-04T16:34:16;8.47;;;5.93;;
11135;SDS011;5622;50.840;4.948;2022-10-04T16:36:53;8.63;;;7.20;;
11135;SDS011;5622;50.840;4.948;2022-10-04T16:39:29;9.27;;;8.00;;
11135;SDS011;5622;50.840;4.948;2022-10-04T16:42:18;16.07;;;8.47;;
11135;SDS011;5622;50.840;4.948;2022-10-04T16:44:53;10.73;;;6.37;;
11135;SDS011;5622;50.840;4.948;2022-10-04T16:47:26;7.80;;;5.30;;
11135;SDS011;5622;50.840;4.948;2022-10-04T16:49:58;7.23;;;4.57;;
11135;SDS011;5622;50.840;4.948;2022-10-04T16:52:35;5.10;;;4.20;;
11135;SDS011;5622;50.840;4.948;2022-10-04T16:55:27;8.70;;;4.60;;
11135;SDS011;5622;50.840;4.948;2022-10-04T16:58:40;5.30;;;4.03;;
11135;SDS011;5622;50.840;4.948;2022-10-04T17:04:24;9.03;;;4.17;;
11135;SDS011;5622;50.840;4.948;2022-10-04T17:07:34;6.53;;;4.10;;
11135;SDS011;5622;50.840;4.948;2022-10-04T17:10:15;7.63;;;3.93;;
11135;SDS011;5622;50.840;4.948;2022-10-04T17:12:47;5.33;;;4.60;;
11135;SDS011;5622;50.840;4.948;2022-10-04T17:15:24;5.53;;;4.47;;
11135;SDS011;5622;50.840;4.948;2022-10-04T17:18:18;9.70;;;4.50;;
11135;SDS011;5622;50.840;4.948;2022-10-04T17:20:56;10.37;;;5.07;;
11135;SDS011;5622;50.840;4.948;2022-10-04T17:23:31;5.87;;;4.30;;
11135;SDS011;5622;50.840;4.948;2022-10-04T17:26:21;4.47;;;3.93;;
11135;SDS011;5622;50.840;4.948;2022-10-04T17:29:04;6.70;;;4.47;;
11135;SDS011;5622;50.840;4.948;2022-10-04T17:31:51;7.20;;;4.70;;
11135;SDS011;5622;50.840;4.948;2022-10-04T17:34:28;7.60;;;4.90;;
11135;SDS011;5622;50.840;4.948;2022-10-04T17:37:10;8.03;;;5.43;;
11135;SDS011;5622;50.840;4.948;2022-10-04T17:39:46;6.23;;;5.20;;
11135;SDS011;5622;50.840;4.948;2022-10-04T17:42:20;6.77;;;4.97;;
11135;SDS011;5622;50.840;4.948;2022-10-04T17:45:06;6.83;;;5.10;;
11135;SDS011;5622;50.840;4.948;2022-10-04T17:47:48;7.57;;;5.10;;
11135;SDS011;5622;50.840;4.948;2022-10-04T17:50:45;7.57;;;4.63;;
11135;SDS011;5622;50.840;4.948;2022-10-04T17:53:39;7.37;;;4.73;;
11135;SDS011;5622;50.840;4.948;2022-10-04T17:56:29;5.83;;;4.43;;
11135;SDS011;5622;50.840;4.948;2022-10-04T17:59:00;10.13;;;6.37;;
11135;SDS011;5622;50.840;4.948;2022-10-04T18:01:37;10.23;;;6.63;;
11135;SDS011;5622;50.840;4.948;2022-10-04T18:04:12;6.77;;;6.03;;
11135;SDS011;5622;50.840;4.948;2022-10-04T18:06:46;9.67;;;5.50;;
11135;SDS011;5622;50.840;4.948;2022-10-04T18:09:18;6.13;;;5.13;;
11135;SDS011;5622;50.840;4.948;2022-10-04T18:11:48;6.93;;;4.90;;
11135;SDS011;5622;50.840;4.948;2022-10-04T18:14:21;9.97;;;5.40;;
11135;SDS011;5622;50.840;4.948;2022-10-04T18:17:06;9.23;;;5.53;;
11135;SDS011;5622;50.840;4.948;2022-10-04T18:19:39;7.93;;;5.63;;
11135;SDS011;5622;50.840;4.948;2022-10-04T18:22:23;9.20;;;5.33;;
11135;SDS011;5622;50.840;4.948;2022-10-04T18:25:02;7.57;;;5.73;;
11135;SDS011;5622;50.840;4.948;2022-10-04T18:27:46;8.83;;;5.80;;
11135;SDS011;5622;50.840;4.948;2022-10-04T18:30:15;9.63;;;6.20;;
11135;SDS011;5622;50.840;4.948;2022-10-04T18:32:44;7.30;;;6.00;;
11135;SDS011;5622;50.840;4.948;2022-10-04T18:35:18;8.90;;;5.97;;
11135;SDS011;5622;50.840;4.948;2022-10-04T18:37:51;7.17;;;5.90;;
11135;SDS011;5622;50.840;4.948;2022-10-04T18:40:19;9.43;;;6.17;;
11135;SDS011;5622;50.840;4.948;2022-10-04T18:42:49;9.47;;;5.83;;
11135;SDS011;5622;50.840;4.948;2022-10-04T18:45:19;8.87;;;5.83;;
11135;SDS011;5622;50.840;4.948;2022-10-04T18:47:48;8.80;;;6.23;;
11135;SDS011;5622;50.840;4.948;2022-10-04T18:50:22;8.87;;;6.10;;